sensor_id;sensor_type;location;lat;lon;timestamp;pressure;altitude;pressure_sealevel;temperature;humidity
9189;BME280;34313;50.780;6.084;2023-05-28T00:01:02;99885.28;;;11.64;95.32
9189;BME280;34313;50.780;6.084;2023-05-28T00:03:28;99885.09;;;11.67;95.63
9189;BME280;34313;50.780;6.084;2023-05-28T00:05:59;99889.69;;;11.64;95.90
9189;BME280;34313;50.780;6.084;2023-05-28T00:08:24;99880.00;;;11.64;95.50
9189;BME280;34313;50.780;6.084;2023-05-28T00:10:50;99885.38;;;11.63;96.30
9189;BME280;34313;50.780;6.084;2023-05-28T00:13:17;99880.44;;;11.57;96.56
9189;BME280;34313;50.780;6.084;2023-05-28T00:15:43;99880.72;;;11.52;96.88
9189;BME280;34313;50.780;6.084;2023-05-28T00:18:09;99874.63;;;11.50;97.44
9189;BME280;34313;50.780;6.084;2023-05-28T00:20:37;99876.59;;;11.46;97.45
9189;BME280;34313;50.780;6.084;2023-05-28T00:23:02;99870.72;;;11.41;98.21
9189;BME280;34313;50.780;6.084;2023-05-28T00:25:28;99875.06;;;11.42;98.48
9189;BME280;34313;50.780;6.084;2023-05-28T00:27:53;99868.00;;;11.43;98.91
9189;BME280;34313;50.780;6.084;2023-05-28T00:30:18;99871.84;;;11.37;99.36
9189;BME280;34313;50.780;6.084;2023-05-28T00:32:44;99871.00;;;11.37;99.47
9189;BME280;34313;50.780;6.084;2023-05-28T00:35:09;99869.19;;;11.37;98.92
9189;BME280;34313;50.780;6.084;2023-05-28T00:37:34;99864.00;;;11.35;98.55
9189;BME280;34313;50.780;6.084;2023-05-28T00:40:00;99856.38;;;11.31;98.79
9189;BME280;34313;50.780;6.084;2023-05-28T00:42:25;99862.06;;;11.23;99.17
9189;BME280;34313;50.780;6.084;2023-05-28T00:44:51;99863.16;;;11.19;99.82
9189;BME280;34313;50.780;6.084;2023-05-28T00:47:17;99855.66;;;11.11;100.00
9189;BME280;34313;50.780;6.084;2023-05-28T00:49:42;99871.47;;;11.11;100.00
9189;BME280;34313;50.780;6.084;2023-05-28T00:52:09;99851.56;;;11.06;100.00
9189;BME280;34313;50.780;6.084;2023-05-28T00:54:35;99850.88;;;11.02;100.00
9189;BME280;34313;50.780;6.084;2023-05-28T00:57:01;99859.75;;;11.01;100.00
9189;BME280;34313;50.780;6.084;2023-05-28T00:59:27;99844.41;;;10.92;100.00
9189;BME280;34313;50.780;6.084;2023-05-28T01:01:53;99849.75;;;10.90;100.00
9189;BME280;34313;50.780;6.084;2023-05-28T01:04:19;99851.81;;;10.85;100.00
9189;BME280;34313;50.780;6.084;2023-05-28T01:06:47;99852.97;;;10.79;100.00
9189;BME280;34313;50.780;6.084;2023-05-28T01:09:13;99850.53;;;10.76;100.00
9189;BME280;34313;50.780;6.084;2023-05-28T01:11:41;99838.50;;;10.71;100.00
9189;BME280;34313;50.780;6.084;2023-05-28T01:14:08;99844.19;;;10.63;100.00
9189;BME280;34313;50.780;6.084;2023-05-28T01:16:33;99847.00;;;10.60;100.00
9189;BME280;34313;50.780;6.084;2023-05-28T01:19:01;99844.69;;;10.54;100.00
9189;BME280;34313;50.780;6.084;2023-05-28T01:21:27;99846.63;;;10.50;100.00
9189;BME280;34313;50.780;6.084;2023-05-28T01:23:53;99844.31;;;10.44;100.00
9189;BME280;34313;50.780;6.084;2023-05-28T01:26:19;99842.84;;;10.38;100.00
9189;BME280;34313;50.780;6.084;2023-05-28T01:28:48;99840.28;;;10.37;100.00
9189;BME280;34313;50.780;6.084;2023-05-28T01:31:15;99844.09;;;10.31;100.00
9189;BME280;34313;50.780;6.084;2023-05-28T01:33:41;99842.16;;;10.35;100.00
9189;BME280;34313;50.780;6.084;2023-05-28T01:36:13;99833.75;;;10.27;100.00
9189;BME280;34313;50.780;6.084;2023-05-28T01:38:41;99841.75;;;10.25;100.00
9189;BME280;34313;50.780;6.084;2023-05-28T01:41:09;99838.56;;;10.18;100.00
9189;BME280;34313;50.780;6.084;2023-05-28T01:43:35;99842.44;;;10.11;100.00
9189;BME280;34313;50.780;6.084;2023-05-28T01:46:00;99847.72;;;10.11;100.00
9189;BME280;34313;50.780;6.084;2023-05-28T01:48:27;99843.63;;;10.06;100.00
9189;BME280;34313;50.780;6.084;2023-05-28T01:50:53;99848.19;;;10.02;100.00
9189;BME280;34313;50.780;6.084;2023-05-28T01:53:19;99851.72;;;10.01;100.00
9189;BME280;34313;50.780;6.084;2023-05-28T01:55:44;99846.72;;;9.96;100.00
9189;BME280;34313;50.780;6.084;2023-05-28T01:58:09;99836.41;;;9.92;100.00
9189;BME280;34313;50.780;6.084;2023-05-28T02:00:39;99843.25;;;9.96;100.00
9189;BME280;34313;50.780;6.084;2023-05-28T02:03:07;99839.91;;;9.92;100.00
9189;BME280;34313;50.780;6.084;2023-05-28T02:05:36;99837.44;;;9.89;100.00
9189;BME280;34313;50.780;6.084;2023-05-28T02:08:02;99834.88;;;9.88;100.00
9189;BME280;34313;50.780;6.084;2023-05-28T02:10:27;99831.75;;;9.79;100.00
9189;BME280;34313;50.780;6.084;2023-05-28T02:12:52;99828.50;;;9.74;100.00
9189;BME280;34313;50.780;6.084;2023-05-28T02:15:20;99833.69;;;9.76;100.00
9189;BME280;34313;50.780;6.084;2023-05-28T02:17:45;99819.75;;;9.74;100.00
9189;BME280;34313;50.780;6.084;2023-05-28T02:20:11;99820.69;;;9.73;100.00
9189;BME280;34313;50.780;6.084;2023-05-28T02:22:37;99817.28;;;9.71;100.00
9189;BME280;34313;50.780;6.084;2023-05-28T02:25:03;99815.72;;;9.67;100.00
9189;BME280;34313;50.780;6.084;2023-05-28T02:27:28;99817.19;;;9.72;100.00
9189;BME280;34313;50.780;6.084;2023-05-28T02:29:53;99808.53;;;9.70;100.00
9189;BME280;34313;50.780;6.084;2023-05-28T02:32:19;99810.63;;;9.63;100.00
9189;BME280;34313;50.780;6.084;2023-05-28T02:34:44;99814.19;;;9.62;100.00
9189;BME280;34313;50.780;6.084;2023-05-28T02:37:09;99809.00;;;9.61;100.00
9189;BME280;34313;50.780;6.084;2023-05-28T02:39:35;99808.19;;;9.59;100.00
9189;BME280;34313;50.780;6.084;2023-05-28T02:42:00;99812.16;;;9.68;100.00
9189;BME280;34313;50.780;6.084;2023-05-28T02:44:26;99810.31;;;9.70;100.00
9189;BME280;34313;50.780;6.084;2023-05-28T02:46:51;99811.31;;;9.67;100.00
9189;BME280;34313;50.780;6.084;2023-05-28T02:49:16;99817.03;;;9.58;100.00
9189;BME280;34313;50.780;6.084;2023-05-28T02:51:42;99807.44;;;9.57;100.00
9189;BME280;34313;50.780;6.084;2023-05-28T02:54:07;99816.41;;;9.53;100.00
9189;BME280;34313;50.780;6.084;2023-05-28T02:56:32;99821.03;;;9.48;100.00
9189;BME280;34313;50.780;6.084;2023-05-28T02:58:58;99817.00;;;9.40;100.00
9189;BME280;34313;50.780;6.084;2023-05-28T03:01:23;99814.75;;;9.33;100.00
9189;BME280;34313;50.780;6.084;2023-05-28T03:03:48;99812.50;;;9.42;100.00
9189;BME280;34313;50.780;6.084;2023-05-28T03:06:14;99821.34;;;9.41;100.00
9189;BME280;34313;50.780;6.084;2023-05-28T03:08:40;99823.19;;;9.39;100.00
9189;BME280;34313;50.780;6.084;2023-05-28T03:11:05;99830.22;;;9.39;100.00
9189;BME280;34313;50.780;6.084;2023-05-28T03:13:30;99813.75;;;9.35;100.00
9189;BME280;34313;50.780;6.084;2023-05-28T03:15:56;99820.09;;;9.31;100.00
9189;BME280;34313;50.780;6.084;2023-05-28T03:18:21;99830.59;;;9.31;100.00
9189;BME280;34313;50.780;6.084;2023-05-28T03:20:47;99826.13;;;9.33;100.00
9189;BME280;34313;50.780;6.084;2023-05-28T03:23:12;99826.25;;;9.30;100.00
9189;BME280;34313;50.780;6.084;2023-05-28T03:25:38;99832.53;;;9.27;100.00
9189;BME280;34313;50.780;6.084;2023-05-28T03:28:03;99831.84;;;9.24;100.00
9189;BME280;34313;50.780;6.084;2023-05-28T03:30:28;99837.78;;;9.27;100.00
9189;BME280;34313;50.780;6.084;2023-05-28T03:32:53;99832.59;;;9.26;100.00
9189;BME280;34313;50.780;6.084;2023-05-28T03:35:19;99830.19;;;9.21;100.00
9189;BME280;34313;50.780;6.084;2023-05-28T03:37:44;99837.16;;;9.22;100.00
9189;BME280;34313;50.780;6.084;2023-05-28T03:40:10;99835.16;;;9.27;100.00
9189;BME280;34313;50.780;6.084;2023-05-28T03:42:36;99839.47;;;9.28;100.00
9189;BME280;34313;50.780;6.084;2023-05-28T03:45:02;99836.56;;;9.35;100.00
9189;BME280;34313;50.780;6.084;2023-05-28T03:47:27;99843.31;;;9.40;100.00
9189;BME280;34313;50.780;6.084;2023-05-28T03:49:56;99830.03;;;9.43;100.00
9189;BME280;34313;50.780;6.084;2023-05-28T03:52:21;99825.53;;;9.45;100.00
9189;BME280;34313;50.780;6.084;2023-05-28T03:54:46;99839.06;;;9.55;100.00
9189;BME280;34313;50.780;6.084;2023-05-28T03:57:12;99832.69;;;9.61;100.00
9189;BME280;34313;50.780;6.084;2023-05-28T03:59:37;99836.78;;;9.67;100.00
9189;BME280;34313;50.780;6.084;2023-05-28T04:02:02;99838.13;;;9.75;100.00
9189;BME280;34313;50.780;6.084;2023-05-28T04:04:27;99832.78;;;9.77;100.00
9189;BME280;34313;50.780;6.084;2023-05-28T04:06:53;99840.91;;;9.90;100.00
9189;BME280;34313;50.780;6.084;2023-05-28T04:09:18;99843.13;;;9.97;100.00
9189;BME280;34313;50.780;6.084;2023-05-28T04:11:44;99836.66;;;10.05;100.00
9189;BME280;34313;50.780;6.084;2023-05-28T04:14:09;99844.78;;;10.17;100.00
9189;BME280;34313;50.780;6.084;2023-05-28T04:16:34;99839.03;;;10.27;100.00
9189;BME280;34313;50.780;6.084;2023-05-28T04:19:00;99842.84;;;10.38;100.00
9189;BME280;34313;50.780;6.084;2023-05-28T04:21:25;99834.47;;;10.48;100.00
9189;BME280;34313;50.780;6.084;2023-05-28T04:23:51;99836.44;;;10.60;100.00
9189;BME280;34313;50.780;6.084;2023-05-28T04:26:16;99848.13;;;10.72;100.00
9189;BME280;34313;50.780;6.084;2023-05-28T04:28:41;99842.34;;;10.81;100.00
9189;BME280;34313;50.780;6.084;2023-05-28T04:31:07;99845.00;;;10.97;100.00
9189;BME280;34313;50.780;6.084;2023-05-28T04:33:33;99850.38;;;11.11;100.00
9189;BME280;34313;50.780;6.084;2023-05-28T04:35:59;99839.19;;;11.24;100.00
9189;BME280;34313;50.780;6.084;2023-05-28T04:38:25;99848.19;;;11.35;100.00
9189;BME280;34313;50.780;6.084;2023-05-28T04:40:54;99846.47;;;11.50;100.00
9189;BME280;34313;50.780;6.084;2023-05-28T04:43:19;99845.69;;;11.64;100.00
9189;BME280;34313;50.780;6.084;2023-05-28T04:45:46;99849.50;;;11.75;100.00
9189;BME280;34313;50.780;6.084;2023-05-28T04:48:12;99850.41;;;11.89;100.00
9189;BME280;34313;50.780;6.084;2023-05-28T04:50:37;99847.25;;;11.99;98.36
9189;BME280;34313;50.780;6.084;2023-05-28T04:53:02;99845.22;;;12.18;97.76
9189;BME280;34313;50.780;6.084;2023-05-28T04:55:27;99844.31;;;13.05;96.16
9189;BME280;34313;50.780;6.084;2023-05-28T04:57:53;99839.97;;;15.40;88.03
9189;BME280;34313;50.780;6.084;2023-05-28T05:00:19;99832.44;;;18.39;76.32
9189;BME280;34313;50.780;6.084;2023-05-28T05:02:45;99834.41;;;21.40;57.79
9189;BME280;34313;50.780;6.084;2023-05-28T05:05:10;99841.63;;;23.83;47.57
9189;BME280;34313;50.780;6.084;2023-05-28T05:07:37;99848.59;;;25.85;41.68
9189;BME280;34313;50.780;6.084;2023-05-28T05:10:12;99837.13;;;27.70;36.82
9189;BME280;34313;50.780;6.084;2023-05-28T05:12:38;99839.78;;;29.26;33.90
9189;BME280;34313;50.780;6.084;2023-05-28T05:15:05;99847.69;;;30.56;31.29
9189;BME280;34313;50.780;6.084;2023-05-28T05:17:31;99845.91;;;31.85;29.37
9189;BME280;34313;50.780;6.084;2023-05-28T05:20:01;99844.28;;;32.97;27.84
9189;BME280;34313;50.780;6.084;2023-05-28T05:22:26;99853.00;;;33.73;26.57
9189;BME280;34313;50.780;6.084;2023-05-28T05:24:52;99851.84;;;34.35;25.10
9189;BME280;34313;50.780;6.084;2023-05-28T05:27:18;99858.00;;;34.65;24.54
9189;BME280;34313;50.780;6.084;2023-05-28T05:29:43;99847.91;;;34.78;23.97
9189;BME280;34313;50.780;6.084;2023-05-28T05:32:11;99848.66;;;35.54;22.72
9189;BME280;34313;50.780;6.084;2023-05-28T05:34:37;99848.84;;;36.27;22.16
9189;BME280;34313;50.780;6.084;2023-05-28T05:37:03;99851.41;;;36.51;21.77
9189;BME280;34313;50.780;6.084;2023-05-28T05:39:28;99853.66;;;36.93;21.55
9189;BME280;34313;50.780;6.084;2023-05-28T05:41:54;99849.63;;;37.99;19.96
9189;BME280;34313;50.780;6.084;2023-05-28T05:44:19;99855.41;;;38.78;19.14
9189;BME280;34313;50.780;6.084;2023-05-28T05:46:45;99852.88;;;38.29;19.18
9189;BME280;34313;50.780;6.084;2023-05-28T05:49:10;99851.47;;;39.06;18.50
9189;BME280;34313;50.780;6.084;2023-05-28T05:51:36;99848.84;;;39.83;18.21
9189;BME280;34313;50.780;6.084;2023-05-28T05:54:02;99855.09;;;39.38;17.58
9189;BME280;34313;50.780;6.084;2023-05-28T05:56:27;99853.28;;;39.69;17.97
9189;BME280;34313;50.780;6.084;2023-05-28T05:58:53;99849.16;;;40.02;18.00
9189;BME280;34313;50.780;6.084;2023-05-28T06:01:20;99848.06;;;40.29;17.76
9189;BME280;34313;50.780;6.084;2023-05-28T06:03:45;99848.78;;;40.76;16.83
9189;BME280;34313;50.780;6.084;2023-05-28T06:06:11;99840.38;;;41.17;16.65
9189;BME280;34313;50.780;6.084;2023-05-28T06:08:37;99847.28;;;41.64;15.39
9189;BME280;34313;50.780;6.084;2023-05-28T06:11:02;99854.56;;;40.79;16.04
9189;BME280;34313;50.780;6.084;2023-05-28T06:13:27;99845.69;;;41.53;15.50
9189;BME280;34313;50.780;6.084;2023-05-28T06:15:52;99842.69;;;40.89;15.62
9189;BME280;34313;50.780;6.084;2023-05-28T06:18:18;99847.13;;;41.85;14.80
9189;BME280;34313;50.780;6.084;2023-05-28T06:20:44;99844.06;;;40.92;15.43
9189;BME280;34313;50.780;6.084;2023-05-28T06:23:10;99848.72;;;38.21;17.76
9189;BME280;34313;50.780;6.084;2023-05-28T06:25:35;99841.75;;;35.11;20.28
9189;BME280;34313;50.780;6.084;2023-05-28T06:28:02;99848.31;;;31.30;24.21
9189;BME280;34313;50.780;6.084;2023-05-28T06:30:28;99844.41;;;28.97;27.31
9189;BME280;34313;50.780;6.084;2023-05-28T06:32:53;99849.25;;;26.86;31.13
9189;BME280;34313;50.780;6.084;2023-05-28T06:35:18;99864.28;;;25.35;33.85
9189;BME280;34313;50.780;6.084;2023-05-28T06:37:44;99864.38;;;23.97;35.89
9189;BME280;34313;50.780;6.084;2023-05-28T06:40:10;99849.47;;;23.52;37.68
9189;BME280;34313;50.780;6.084;2023-05-28T06:42:36;99850.22;;;24.11;37.66
9189;BME280;34313;50.780;6.084;2023-05-28T06:45:03;99856.75;;;23.76;38.72
9189;BME280;34313;50.780;6.084;2023-05-28T06:47:29;99852.56;;;23.82;38.42
9189;BME280;34313;50.780;6.084;2023-05-28T06:49:54;99855.22;;;23.65;38.88
9189;BME280;34313;50.780;6.084;2023-05-28T06:52:20;99858.66;;;23.33;39.53
9189;BME280;34313;50.780;6.084;2023-05-28T06:54:46;99859.47;;;23.25;39.95
9189;BME280;34313;50.780;6.084;2023-05-28T06:57:11;99869.53;;;23.15;40.03
9189;BME280;34313;50.780;6.084;2023-05-28T06:59:36;99870.72;;;22.86;40.78
9189;BME280;34313;50.780;6.084;2023-05-28T07:02:02;99869.31;;;23.08;40.76
9189;BME280;34313;50.780;6.084;2023-05-28T07:04:27;99860.97;;;24.03;39.20
9189;BME280;34313;50.780;6.084;2023-05-28T07:06:53;99869.13;;;25.71;37.21
9189;BME280;34313;50.780;6.084;2023-05-28T07:09:18;99864.22;;;29.33;31.26
9189;BME280;34313;50.780;6.084;2023-05-28T07:11:44;99870.78;;;32.53;26.67
9189;BME280;34313;50.780;6.084;2023-05-28T07:14:09;99874.09;;;35.78;23.25
9189;BME280;34313;50.780;6.084;2023-05-28T07:16:34;99874.25;;;38.16;19.52
9189;BME280;34313;50.780;6.084;2023-05-28T07:19:00;99868.47;;;38.50;19.28
9189;BME280;34313;50.780;6.084;2023-05-28T07:21:25;99876.50;;;38.57;18.87
9189;BME280;34313;50.780;6.084;2023-05-28T07:23:50;99871.81;;;38.20;19.08
9189;BME280;34313;50.780;6.084;2023-05-28T07:26:15;99879.72;;;38.91;18.66
9189;BME280;34313;50.780;6.084;2023-05-28T07:28:41;99878.59;;;39.45;18.12
9189;BME280;34313;50.780;6.084;2023-05-28T07:31:06;99879.41;;;41.05;16.42
9189;BME280;34313;50.780;6.084;2023-05-28T07:33:32;99883.34;;;39.70;17.09
9189;BME280;34313;50.780;6.084;2023-05-28T07:35:57;99884.25;;;40.12;16.76
9189;BME280;34313;50.780;6.084;2023-05-28T07:38:22;99887.81;;;40.13;16.73
9189;BME280;34313;50.780;6.084;2023-05-28T07:40:49;99886.09;;;39.65;17.46
9189;BME280;34313;50.780;6.084;2023-05-28T07:43:15;99878.63;;;40.74;17.09
9189;BME280;34313;50.780;6.084;2023-05-28T07:45:40;99864.03;;;41.38;16.22
9189;BME280;34313;50.780;6.084;2023-05-28T07:48:08;99878.25;;;41.71;15.84
9189;BME280;34313;50.780;6.084;2023-05-28T07:50:34;99876.41;;;41.96;16.00
9189;BME280;34313;50.780;6.084;2023-05-28T07:52:59;99874.72;;;42.35;15.17
9189;BME280;34313;50.780;6.084;2023-05-28T07:55:27;99888.00;;;40.98;15.75
9189;BME280;34313;50.780;6.084;2023-05-28T07:57:52;99879.06;;;42.41;14.68
9189;BME280;34313;50.780;6.084;2023-05-28T08:00:17;99881.91;;;42.65;14.66
9189;BME280;34313;50.780;6.084;2023-05-28T08:02:43;99873.75;;;42.20;14.85
9189;BME280;34313;50.780;6.084;2023-05-28T08:05:08;99878.19;;;42.45;15.01
9189;BME280;34313;50.780;6.084;2023-05-28T08:07:35;99870.16;;;40.03;16.21
9189;BME280;34313;50.780;6.084;2023-05-28T08:10:00;99871.63;;;39.22;16.28
9189;BME280;34313;50.780;6.084;2023-05-28T08:12:26;99868.38;;;38.08;17.08
9189;BME280;34313;50.780;6.084;2023-05-28T08:14:51;99875.81;;;37.75;17.78
9189;BME280;34313;50.780;6.084;2023-05-28T08:17:19;99875.53;;;38.41;17.38
9189;BME280;34313;50.780;6.084;2023-05-28T08:19:45;99871.09;;;38.72;16.68
9189;BME280;34313;50.780;6.084;2023-05-28T08:22:10;99866.59;;;37.91;17.33
9189;BME280;34313;50.780;6.084;2023-05-28T08:24:36;99860.84;;;37.65;17.65
9189;BME280;34313;50.780;6.084;2023-05-28T08:27:01;99868.34;;;36.26;18.84
9189;BME280;34313;50.780;6.084;2023-05-28T08:29:27;99858.59;;;36.91;17.97
9189;BME280;34313;50.780;6.084;2023-05-28T08:31:52;99857.41;;;36.14;18.92
9189;BME280;34313;50.780;6.084;2023-05-28T08:34:17;99854.63;;;37.04;18.49
9189;BME280;34313;50.780;6.084;2023-05-28T08:36:43;99858.38;;;36.76;18.05
9189;BME280;34313;50.780;6.084;2023-05-28T08:39:08;99853.66;;;36.93;18.01
9189;BME280;34313;50.780;6.084;2023-05-28T08:41:34;99857.75;;;37.13;18.09
9189;BME280;34313;50.780;6.084;2023-05-28T08:44:00;99854.41;;;35.00;19.55
9189;BME280;34313;50.780;6.084;2023-05-28T08:46:26;99854.56;;;34.58;20.47
9189;BME280;34313;50.780;6.084;2023-05-28T08:48:52;99843.97;;;36.29;18.83
9189;BME280;34313;50.780;6.084;2023-05-28T08:51:19;99841.06;;;36.75;18.32
9189;BME280;34313;50.780;6.084;2023-05-28T08:53:46;99845.69;;;36.02;19.01
9189;BME280;34313;50.780;6.084;2023-05-28T08:56:12;99850.41;;;34.32;19.63
9189;BME280;34313;50.780;6.084;2023-05-28T08:58:38;99844.69;;;34.57;19.54
9189;BME280;34313;50.780;6.084;2023-05-28T09:01:07;99840.28;;;33.00;21.33
9189;BME280;34313;50.780;6.084;2023-05-28T09:03:34;99836.69;;;34.08;20.47
9189;BME280;34313;50.780;6.084;2023-05-28T09:06:00;99842.47;;;33.88;20.31
9189;BME280;34313;50.780;6.084;2023-05-28T09:08:26;99829.44;;;33.30;20.85
9189;BME280;34313;50.780;6.084;2023-05-28T09:10:51;99836.25;;;31.58;22.59
9189;BME280;34313;50.780;6.084;2023-05-28T09:13:20;99824.19;;;32.04;22.71
9189;BME280;34313;50.780;6.084;2023-05-28T09:15:53;99824.63;;;32.51;22.31
9189;BME280;34313;50.780;6.084;2023-05-28T09:18:22;99830.19;;;33.00;21.45
9189;BME280;34313;50.780;6.084;2023-05-28T09:20:49;99829.66;;;32.29;22.33
9189;BME280;34313;50.780;6.084;2023-05-28T09:23:16;99820.91;;;31.63;22.68
9189;BME280;34313;50.780;6.084;2023-05-28T09:25:42;99828.94;;;31.45;23.40
9189;BME280;34313;50.780;6.084;2023-05-28T09:28:10;99822.81;;;29.79;25.02
9189;BME280;34313;50.780;6.084;2023-05-28T09:30:38;99827.56;;;30.77;24.41
9189;BME280;34313;50.780;6.084;2023-05-28T09:33:05;99830.13;;;30.05;25.16
9189;BME280;34313;50.780;6.084;2023-05-28T09:35:31;99833.63;;;30.66;24.60
9189;BME280;34313;50.780;6.084;2023-05-28T09:38:09;99838.28;;;30.25;25.18
9189;BME280;34313;50.780;6.084;2023-05-28T09:40:42;99814.00;;;30.50;24.60
9189;BME280;34313;50.780;6.084;2023-05-28T09:43:08;99822.31;;;31.34;24.54
9189;BME280;34313;50.780;6.084;2023-05-28T09:45:33;99816.00;;;31.02;24.54
9189;BME280;34313;50.780;6.084;2023-05-28T09:47:59;99818.44;;;29.16;26.72
9189;BME280;34313;50.780;6.084;2023-05-28T09:50:25;99818.28;;;28.90;27.22
9189;BME280;34313;50.780;6.084;2023-05-28T09:52:54;99819.22;;;29.78;26.71
9189;BME280;34313;50.780;6.084;2023-05-28T09:55:23;99800.56;;;29.42;26.79
9189;BME280;34313;50.780;6.084;2023-05-28T09:58:04;99816.97;;;28.16;28.73
9189;BME280;34313;50.780;6.084;2023-05-28T10:00:47;99805.22;;;26.77;29.40
9189;BME280;34313;50.780;6.084;2023-05-28T10:03:24;99823.25;;;26.32;28.92
9189;BME280;34313;50.780;6.084;2023-05-28T10:05:59;99814.09;;;25.18;30.72
9189;BME280;34313;50.780;6.084;2023-05-28T10:08:25;99825.47;;;25.36;31.63
9189;BME280;34313;50.780;6.084;2023-05-28T10:10:53;99827.03;;;25.22;31.75
9189;BME280;34313;50.780;6.084;2023-05-28T10:13:19;99826.81;;;25.01;33.16
9189;BME280;34313;50.780;6.084;2023-05-28T10:15:45;99819.91;;;25.38;32.14
9189;BME280;34313;50.780;6.084;2023-05-28T10:18:10;99832.75;;;25.59;32.67
9189;BME280;34313;50.780;6.084;2023-05-28T10:20:37;99827.72;;;24.85;33.27
9189;BME280;34313;50.780;6.084;2023-05-28T10:23:03;99823.72;;;25.12;32.69
9189;BME280;34313;50.780;6.084;2023-05-28T10:25:29;99827.22;;;25.52;32.50
9189;BME280;34313;50.780;6.084;2023-05-28T10:27:59;99824.00;;;25.34;32.89
9189;BME280;34313;50.780;6.084;2023-05-28T10:30:35;99830.66;;;25.06;33.83
9189;BME280;34313;50.780;6.084;2023-05-28T10:33:08;99824.03;;;25.17;33.46
9189;BME280;34313;50.780;6.084;2023-05-28T10:35:34;99819.25;;;24.96;33.45
9189;BME280;34313;50.780;6.084;2023-05-28T10:40:32;99831.50;;;24.51;35.00
9189;BME280;34313;50.780;6.084;2023-05-28T10:42:59;99815.56;;;24.08;35.89
9189;BME280;34313;50.780;6.084;2023-05-28T10:45:37;99834.72;;;24.05;36.09
9189;BME280;34313;50.780;6.084;2023-05-28T10:48:03;99824.50;;;24.09;35.27
9189;BME280;34313;50.780;6.084;2023-05-28T10:50:29;99815.03;;;23.96;34.94
9189;BME280;34313;50.780;6.084;2023-05-28T10:53:08;99812.97;;;24.48;34.81
9189;BME280;34313;50.780;6.084;2023-05-28T10:55:49;99818.66;;;24.69;34.33
9189;BME280;34313;50.780;6.084;2023-05-28T10:58:33;99818.56;;;24.05;35.45
9189;BME280;34313;50.780;6.084;2023-05-28T11:03:41;99821.34;;;23.38;34.86
9189;BME280;34313;50.780;6.084;2023-05-28T11:06:07;99819.81;;;23.27;35.02
9189;BME280;34313;50.780;6.084;2023-05-28T11:08:44;99819.06;;;23.09;35.18
9189;BME280;34313;50.780;6.084;2023-05-28T11:11:12;99808.50;;;23.15;35.68
9189;BME280;34313;50.780;6.084;2023-05-28T11:13:38;99817.28;;;23.26;35.38
9189;BME280;34313;50.780;6.084;2023-05-28T11:16:08;99798.69;;;23.57;34.74
9189;BME280;34313;50.780;6.084;2023-05-28T11:18:33;99811.97;;;23.75;35.14
9189;BME280;34313;50.780;6.084;2023-05-28T11:21:04;99824.94;;;23.79;35.03
9189;BME280;34313;50.780;6.084;2023-05-28T11:23:29;99804.84;;;23.33;34.86
9189;BME280;34313;50.780;6.084;2023-05-28T11:25:55;99821.66;;;23.27;35.09
9189;BME280;34313;50.780;6.084;2023-05-28T11:28:20;99810.00;;;23.10;35.00
9189;BME280;34313;50.780;6.084;2023-05-28T11:30:46;99807.19;;;23.28;34.95
9189;BME280;34313;50.780;6.084;2023-05-28T11:33:11;99818.81;;;23.36;34.14
9189;BME280;34313;50.780;6.084;2023-05-28T11:35:37;99803.34;;;23.30;34.53
9189;BME280;34313;50.780;6.084;2023-05-28T11:38:03;99807.59;;;23.57;34.51
9189;BME280;34313;50.780;6.084;2023-05-28T11:40:34;99815.34;;;23.60;33.98
9189;BME280;34313;50.780;6.084;2023-05-28T11:43:00;99807.09;;;23.54;34.34
9189;BME280;34313;50.780;6.084;2023-05-28T11:45:25;99809.91;;;23.36;34.11
9189;BME280;34313;50.780;6.084;2023-05-28T11:47:51;99804.50;;;23.28;34.25
9189;BME280;34313;50.780;6.084;2023-05-28T11:50:16;99815.63;;;23.33;33.68
9189;BME280;34313;50.780;6.084;2023-05-28T11:52:42;99801.19;;;23.34;33.32
9189;BME280;34313;50.780;6.084;2023-05-28T11:55:08;99793.13;;;23.50;32.87
9189;BME280;34313;50.780;6.084;2023-05-28T11:57:34;99797.50;;;23.43;34.80
9189;BME280;34313;50.780;6.084;2023-05-28T12:00:08;99803.53;;;23.37;34.58
9189;BME280;34313;50.780;6.084;2023-05-28T12:02:51;99803.06;;;23.50;34.55
9189;BME280;34313;50.780;6.084;2023-05-28T12:05:17;99797.81;;;23.32;34.01
9189;BME280;34313;50.780;6.084;2023-05-28T12:07:45;99799.69;;;23.48;33.71
9189;BME280;34313;50.780;6.084;2023-05-28T12:10:12;99798.69;;;23.57;34.17
9189;BME280;34313;50.780;6.084;2023-05-28T12:12:42;99812.66;;;23.69;34.08
9189;BME280;34313;50.780;6.084;2023-05-28T12:15:08;99806.22;;;23.29;33.71
9189;BME280;34313;50.780;6.084;2023-05-28T12:17:35;99796.25;;;23.13;34.42
9189;BME280;34313;50.780;6.084;2023-05-28T12:20:04;99795.94;;;23.24;34.02
9189;BME280;34313;50.780;6.084;2023-05-28T12:22:30;99780.69;;;23.49;34.14
9189;BME280;34313;50.780;6.084;2023-05-28T12:24:55;99777.16;;;23.73;33.95
9189;BME280;34313;50.780;6.084;2023-05-28T12:27:21;99789.31;;;24.02;33.56
9189;BME280;34313;50.780;6.084;2023-05-28T12:29:46;99797.22;;;23.95;32.38
9189;BME280;34313;50.780;6.084;2023-05-28T12:32:11;99780.03;;;23.80;32.06
9189;BME280;34313;50.780;6.084;2023-05-28T12:34:37;99781.25;;;23.94;32.22
9189;BME280;34313;50.780;6.084;2023-05-28T12:37:02;99792.31;;;23.66;32.14
9189;BME280;34313;50.780;6.084;2023-05-28T12:39:29;99787.13;;;23.81;31.19
9189;BME280;34313;50.780;6.084;2023-05-28T12:41:55;99776.00;;;23.68;31.88
9189;BME280;34313;50.780;6.084;2023-05-28T12:44:20;99783.09;;;23.85;31.60
9189;BME280;34313;50.780;6.084;2023-05-28T12:46:45;99772.50;;;23.84;30.71
9189;BME280;34313;50.780;6.084;2023-05-28T12:49:12;99777.34;;;23.80;31.16
9189;BME280;34313;50.780;6.084;2023-05-28T12:51:37;99773.63;;;23.73;31.17
9189;BME280;34313;50.780;6.084;2023-05-28T12:54:03;99773.47;;;23.74;31.46
9189;BME280;34313;50.780;6.084;2023-05-28T12:56:29;99773.31;;;23.92;31.01
9189;BME280;34313;50.780;6.084;2023-05-28T12:58:54;99773.28;;;24.25;30.90
9189;BME280;34313;50.780;6.084;2023-05-28T13:01:19;99762.19;;;24.28;29.82
9189;BME280;34313;50.780;6.084;2023-05-28T13:03:45;99774.63;;;24.29;30.75
9189;BME280;34313;50.780;6.084;2023-05-28T13:06:11;99758.34;;;24.14;30.58
9189;BME280;34313;50.780;6.084;2023-05-28T13:08:36;99766.69;;;24.44;30.18
9189;BME280;34313;50.780;6.084;2023-05-28T13:11:02;99771.06;;;24.53;29.70